This is the latest recevied weather packets stored in our database for station/object KF7SOJ. If no packets are shown the sender has not sent any weather packets the latest 10 day(s).
| Time | Temp. | Humidity | Pressure | Rain* | Wind** | Luminosity | Snow |
|---|---|---|---|---|---|---|---|
| 1777399218 | 8.89° C | 53% | 932.9 hPa | 0 mm | - | 1112 W/m² | - |
| 1777398915 | 8.89° C | 54% | 933 hPa | 0 mm | - | 273 W/m² | - |
| 1777398612 | 8.33° C | 55% | 932.8 hPa | 0 mm | - | 169 W/m² | - |
| 1777398308 | 8.33° C | 56% | 932.8 hPa | 0 mm | - | 196 W/m² | - |
| 1777398006 | 8.33° C | 58% | 932.9 hPa | 0 mm | - | 273 W/m² | - |
| 1777397702 | 8.33° C | 58% | 933 hPa | 0 mm | - | 286 W/m² | - |
| 1777397398 | 8.33° C | 56% | 932.9 hPa | 0 mm | - | 303 W/m² | - |
| 1777397094 | 9.44° C | 57% | 933 hPa | 0 mm | - | 1053 W/m² | - |
| 1777396791 | 8.89° C | 60% | 933.1 hPa | 0 mm | - | 1014 W/m² | - |
| 1777396488 | 8.33° C | 61% | 933 hPa | 0 mm | - | 894 W/m² | - |
| 1777396185 | 8.33° C | 59% | 933.1 hPa | 0 mm | - | 843 W/m² | - |
| 1777395880 | 8.33° C | 63% | 933.1 hPa | 0 mm | - | 821 W/m² | - |
| 1777395576 | 7.78° C | 63% | 933 hPa | 0 mm | - | 867 W/m² | - |
| 1777395272 | 7.22° C | 64% | 933 hPa | 0 mm | - | 385 W/m² | - |
| 1777394970 | 7.78° C | 64% | 933.2 hPa | 0 mm | - | 677 W/m² | - |
| 1777394667 | 7.22° C | 63% | 933.2 hPa | 0 mm | - | 298 W/m² | - |
| 1777394363 | 6.67° C | 65% | 933 hPa | 0 mm | - | 348 W/m² | - |
| 1777394060 | 6.11° C | 67% | 933.1 hPa | 0 mm | - | 288 W/m² | - |
| 1777393755 | 6.11° C | 68% | 933.3 hPa | 0 mm | - | 238 W/m² | - |
| 1777393455 | 6.11° C | 67% | 933.3 hPa | 0 mm | - | 260 W/m² | - |
| 1777393151 | 5.56° C | 73% | 933.3 hPa | 0 mm | - | 317 W/m² | - |
| 1777392848 | 5.56° C | 76% | 933.2 hPa | 0 mm | - | 597 W/m² | - |
| 1777392543 | 5° C | 77% | 933.3 hPa | 0 mm | - | 490 W/m² | - |
| 1777392239 | 3.89° C | 81% | 933.2 hPa | 0 mm | - | 371 W/m² | - |
| 1777391934 | 3.89° C | 83% | 933.1 hPa | 0 mm | - | 217 W/m² | - |
* Rain latest hour (hover to see other rain measurements)
** Current wind speed in m/s (hover to see current wind gust speed)